createdAt,value
2018-12-10T00:00:20.465Z,99702.48
2018-12-10T00:02:27.330Z,99707.25
2018-12-10T00:04:34.127Z,99707.34
2018-12-10T00:06:40.885Z,99702.24
2018-12-10T00:08:47.699Z,99705.91
2018-12-10T00:10:54.463Z,99710.75
2018-12-10T00:13:01.470Z,99712.86
2018-12-10T00:15:08.470Z,99710.98
2018-12-10T00:17:15.691Z,99710.84
2018-12-10T00:19:22.484Z,99712.44
2018-12-10T00:21:29.520Z,99712.42
2018-12-10T00:23:36.363Z,99716.59
2018-12-10T00:25:43.352Z,99711.48
2018-12-10T00:27:50.035Z,99714.74
2018-12-10T00:29:56.838Z,99717.42
2018-12-10T00:32:03.708Z,99719.30
2018-12-10T00:34:10.795Z,99718.09
2018-12-10T00:36:17.497Z,99721.57
2018-12-10T00:38:24.591Z,99718.14
2018-12-10T00:40:31.469Z,99722.42
2018-12-10T00:42:38.341Z,99720.67
2018-12-10T00:44:45.269Z,99714.62
2018-12-10T00:46:52.463Z,99717.94
2018-12-10T00:48:59.566Z,99710.28
2018-12-10T00:51:06.546Z,99708.72
2018-12-10T00:53:13.446Z,99717.29
2018-12-10T00:55:20.069Z,99718.01
2018-12-10T00:57:27.047Z,99714.62
2018-12-10T00:59:34.032Z,99709.02
2018-12-10T01:01:41.279Z,99662.14
2018-12-10T01:03:48.126Z,99708.27
2018-12-10T01:05:55.149Z,99712.17
2018-12-10T01:08:01.820Z,99707.27
2018-12-10T01:10:08.890Z,99708.53
2018-12-10T01:12:15.695Z,99703.59
2018-12-10T01:14:22.352Z,99711.51
2018-12-10T01:16:29.524Z,99709.85
2018-12-10T01:18:36.321Z,99706.09
2018-12-10T01:20:43.209Z,99708.39
2018-12-10T01:22:50.072Z,99704.11
2018-12-10T01:24:56.939Z,99714.14
2018-12-10T01:27:03.777Z,99719.97
2018-12-10T01:29:10.677Z,99716.73
2018-12-10T01:31:18.224Z,99716.62
2018-12-10T01:33:25.683Z,99703.27
2018-12-10T01:35:32.551Z,99713.41
2018-12-10T01:37:39.154Z,99708.72
2018-12-10T01:39:46.091Z,99711.44
2018-12-10T01:41:53.016Z,99712.78
2018-12-10T01:43:59.839Z,99714.44
2018-12-10T01:46:06.536Z,99707.72
2018-12-10T01:48:13.329Z,99709.69
2018-12-10T01:50:20.265Z,99705.91
2018-12-10T01:52:27.105Z,99709.33
2018-12-10T01:54:34.154Z,99706.11
2018-12-10T01:56:41.042Z,99706.83
2018-12-10T01:58:48.724Z,99711.61
2018-12-10T02:00:55.569Z,99706.00
2018-12-10T02:03:02.477Z,99705.61
2018-12-10T02:05:09.261Z,99707.28
2018-12-10T02:07:16.234Z,99702.08
2018-12-10T02:09:23.816Z,99695.44
2018-12-10T02:11:30.848Z,99698.88
2018-12-10T02:13:37.518Z,99699.22
2018-12-10T02:15:44.486Z,99695.67
2018-12-10T02:17:51.327Z,99697.12
2018-12-10T02:19:58.044Z,99696.58
2018-12-10T02:22:05.707Z,99692.70
2018-12-10T02:24:13.898Z,99697.08
2018-12-10T02:26:20.933Z,99698.31
2018-12-10T02:28:32.123Z,99698.93
2018-12-10T02:30:39.326Z,99691.70
2018-12-10T02:32:47.400Z,99689.70
2018-12-10T02:34:55.440Z,99684.49
2018-12-10T02:37:02.957Z,99682.56
2018-12-10T02:39:10.136Z,99682.36
2018-12-10T02:41:17.189Z,99686.25
2018-12-10T02:43:24.005Z,99681.28
2018-12-10T02:45:31.411Z,99692.84
2018-12-10T02:47:38.285Z,99694.83
2018-12-10T02:49:45.212Z,99689.34
2018-12-10T02:51:53.132Z,99693.09
2018-12-10T02:54:00.165Z,99690.83
2018-12-10T02:56:07.208Z,99689.03
2018-12-10T02:58:14.173Z,99686.94
2018-12-10T03:00:21.502Z,99694.34
2018-12-10T03:02:28.278Z,99688.13
2018-12-10T03:04:35.134Z,99681.84
2018-12-10T03:06:42.222Z,99686.42
2018-12-10T03:08:49.329Z,99684.92
2018-12-10T03:10:57.036Z,99685.20
2018-12-10T03:13:04.185Z,99681.65
2018-12-10T03:15:10.981Z,99674.42
2018-12-10T03:17:17.920Z,99681.55
2018-12-10T03:19:24.679Z,99677.95
2018-12-10T03:21:31.260Z,99674.28
2018-12-10T03:23:38.252Z,99676.56
2018-12-10T03:25:45.147Z,99676.14
2018-12-10T03:27:52.119Z,99673.44
2018-12-10T03:29:59.063Z,99671.14
2018-12-10T03:32:05.948Z,99678.69
2018-12-10T03:34:13.181Z,99674.26
2018-12-10T03:36:19.858Z,99673.14
2018-12-10T03:38:26.914Z,99674.84
2018-12-10T03:40:34.011Z,99671.88
2018-12-10T03:42:41.033Z,99662.00
2018-12-10T03:44:48.023Z,99665.05
2018-12-10T03:46:54.685Z,99663.18
2018-12-10T03:49:02.136Z,99666.36
2018-12-10T03:51:08.854Z,99674.21
2018-12-10T03:53:15.635Z,99676.92
2018-12-10T03:55:22.582Z,99677.23
2018-12-10T03:57:29.233Z,99667.59
2018-12-10T03:59:36.206Z,99672.74
2018-12-10T04:01:43.653Z,99673.89
2018-12-10T04:03:50.593Z,99672.41
2018-12-10T04:05:57.337Z,99675.56
2018-12-10T04:08:04.130Z,99670.10
2018-12-10T04:10:10.927Z,99669.22
2018-12-10T04:12:17.855Z,99664.81
2018-12-10T04:14:24.587Z,99668.32
2018-12-10T04:16:31.306Z,99662.12
2018-12-10T04:18:38.399Z,99656.61
2018-12-10T04:20:45.524Z,99655.42
2018-12-10T04:22:52.492Z,99659.33
2018-12-10T04:24:59.457Z,99665.52
2018-12-10T04:27:07.191Z,99663.12
2018-12-10T04:29:14.244Z,99662.80
2018-12-10T04:31:21.057Z,99667.70
2018-12-10T04:33:27.847Z,99659.27
2018-12-10T04:35:34.577Z,99656.45
2018-12-10T04:37:41.705Z,99658.16
2018-12-10T04:39:48.423Z,99661.38
2018-12-10T04:41:55.380Z,99664.00
2018-12-10T04:44:02.307Z,99649.45
2018-12-10T04:46:08.862Z,99660.36
2018-12-10T04:48:15.654Z,99663.81
2018-12-10T04:50:22.714Z,99664.00
2018-12-10T04:52:29.845Z,99667.59
2018-12-10T04:54:38.377Z,99657.51
2018-12-10T04:56:45.568Z,99664.89
2018-12-10T04:58:52.274Z,99649.13
2018-12-10T05:00:58.945Z,99652.34
2018-12-10T05:03:05.892Z,99654.88
2018-12-10T05:05:13.079Z,99651.72
2018-12-10T05:07:19.719Z,99645.47
2018-12-10T05:09:26.543Z,99633.23
2018-12-10T05:11:33.615Z,99651.26
2018-12-10T05:13:40.656Z,99640.80
2018-12-10T05:15:47.544Z,99642.09
2018-12-10T05:17:54.733Z,99645.75
2018-12-10T05:20:01.591Z,99650.73
2018-12-10T05:22:08.605Z,99647.46
2018-12-10T05:24:15.250Z,99646.06
2018-12-10T05:26:22.391Z,99643.70
2018-12-10T05:28:28.935Z,99649.52
2018-12-10T05:30:35.766Z,99649.69
2018-12-10T05:32:42.583Z,99645.39
2018-12-10T05:34:49.443Z,99641.59
2018-12-10T05:36:56.936Z,99641.66
2018-12-10T05:39:04.181Z,99639.75
2018-12-10T05:41:11.337Z,99642.75
2018-12-10T05:43:17.751Z,99641.20
2018-12-10T05:45:24.381Z,99634.67
2018-12-10T05:47:31.257Z,99632.48
2018-12-10T05:49:37.931Z,99637.97
2018-12-10T05:51:45.003Z,99639.00
2018-12-10T05:53:52.198Z,99634.27
2018-12-10T05:55:59.686Z,99632.88
2018-12-10T05:58:06.553Z,99634.53
2018-12-10T06:00:13.510Z,99630.74
2018-12-10T06:02:20.278Z,99636.69
2018-12-10T06:04:27.076Z,99639.03
2018-12-10T06:06:33.859Z,99636.42
2018-12-10T06:08:40.633Z,99632.89
2018-12-10T06:10:47.712Z,99624.39
2018-12-10T06:12:54.747Z,99633.40
2018-12-10T06:15:01.703Z,99617.05
2018-12-10T06:17:09.073Z,99617.41
2018-12-10T06:19:17.544Z,99622.77
2018-12-10T06:21:24.526Z,99615.02
2018-12-10T06:23:31.390Z,99612.31
2018-12-10T06:25:38.178Z,99606.96
2018-12-10T06:27:45.048Z,99615.51
2018-12-10T06:29:51.731Z,99607.03
2018-12-10T06:31:58.522Z,99566.99
2018-12-10T06:34:05.038Z,99609.05
2018-12-10T06:36:11.789Z,99611.02
2018-12-10T06:38:18.694Z,99608.78
2018-12-10T06:40:25.644Z,99606.88
2018-12-10T06:42:32.779Z,99606.71
2018-12-10T06:44:39.517Z,99611.06
2018-12-10T06:46:46.445Z,99611.33
2018-12-10T06:48:53.300Z,99605.95
2018-12-10T06:51:00.203Z,99603.77
2018-12-10T06:53:07.083Z,99607.58
2018-12-10T06:55:14.118Z,99608.62
2018-12-10T06:57:21.094Z,99605.03
2018-12-10T06:59:27.967Z,99600.98
2018-12-10T07:01:34.799Z,99599.52
2018-12-10T07:03:41.762Z,99593.12
2018-12-10T07:05:48.550Z,99600.05
2018-12-10T07:07:55.358Z,99592.14
2018-12-10T07:10:02.103Z,99602.50
2018-12-10T07:12:09.145Z,99603.95
2018-12-10T07:14:15.806Z,99608.77
2018-12-10T07:16:22.607Z,99616.00
2018-12-10T07:18:29.338Z,99607.30
2018-12-10T07:20:35.908Z,99602.44
2018-12-10T07:22:42.628Z,99601.68
2018-12-10T07:24:49.373Z,99597.27
2018-12-10T07:26:56.235Z,99606.42
2018-12-10T07:29:03.363Z,99598.80
2018-12-10T07:31:10.329Z,99595.10
2018-12-10T07:33:17.439Z,99603.28
2018-12-10T07:35:24.146Z,99604.47
2018-12-10T07:37:31.126Z,99611.38
2018-12-10T07:39:37.894Z,99610.23
2018-12-10T07:41:44.974Z,99606.78
2018-12-10T07:43:52.590Z,99610.33
2018-12-10T07:45:59.424Z,99609.77
2018-12-10T07:48:06.032Z,99614.20
2018-12-10T07:50:12.886Z,99614.06
2018-12-10T07:52:19.359Z,99610.16
2018-12-10T07:54:26.275Z,99611.63
2018-12-10T07:56:33.147Z,99615.11
2018-12-10T07:58:40.150Z,99611.92
2018-12-10T08:00:47.085Z,99609.73
2018-12-10T08:02:54.014Z,99616.89
2018-12-10T08:05:01.072Z,99616.98
2018-12-10T08:07:07.866Z,99618.41
2018-12-10T08:09:14.599Z,99612.47
2018-12-10T08:11:21.450Z,99618.04
2018-12-10T08:13:28.274Z,99615.09
2018-12-10T08:15:35.234Z,99619.99
2018-12-10T08:17:42.038Z,99631.23
2018-12-10T08:19:48.681Z,99630.08
2018-12-10T08:21:55.902Z,99627.67
2018-12-10T08:24:02.880Z,99628.51
2018-12-10T08:26:09.597Z,99625.78
2018-12-10T08:28:16.386Z,99627.39
2018-12-10T08:30:23.166Z,99620.11
2018-12-10T08:32:30.298Z,99620.80
2018-12-10T08:36:46.979Z,99614.78
2018-12-10T08:38:53.850Z,99614.00
2018-12-10T08:39:15.221Z,99621.80
2018-12-10T08:41:00.835Z,99610.33
2018-12-10T08:43:07.599Z,99616.52
2018-12-10T08:45:14.334Z,99610.73
2018-12-10T08:47:21.702Z,99614.95
2018-12-10T08:49:28.698Z,99605.36
2018-12-10T08:51:35.637Z,99607.66
2018-12-10T08:53:42.499Z,99607.09
2018-12-10T08:55:49.562Z,99609.66
2018-12-10T08:57:56.267Z,99596.49
2018-12-10T09:00:03.333Z,99606.90
2018-12-10T09:02:10.650Z,99600.36
2018-12-10T09:04:17.753Z,99608.12
2018-12-10T09:06:25.378Z,99604.05
2018-12-10T09:08:32.522Z,99600.36
2018-12-10T09:10:40.099Z,99592.25
2018-12-10T09:12:47.557Z,99596.47
2018-12-10T09:14:54.537Z,99594.64
2018-12-10T09:17:01.096Z,99588.30
2018-12-10T09:19:07.755Z,99577.58
2018-12-10T09:21:14.975Z,99580.64
2018-12-10T09:23:21.914Z,99576.69
2018-12-10T09:25:28.874Z,99585.81
2018-12-10T09:27:35.495Z,99575.77
2018-12-10T09:29:42.714Z,99571.08
2018-12-10T09:31:49.589Z,99567.27
2018-12-10T09:33:56.733Z,99567.00
2018-12-10T09:36:03.486Z,99574.18
2018-12-10T09:38:10.316Z,99564.97
2018-12-10T09:40:17.965Z,99559.25
2018-12-10T09:42:25.102Z,99560.03
2018-12-10T09:44:31.994Z,99555.34
2018-12-10T09:46:38.836Z,99553.21
2018-12-10T09:48:45.846Z,99553.16
2018-12-10T09:50:52.706Z,99560.59
2018-12-10T09:52:59.630Z,99556.20
2018-12-10T09:55:06.306Z,99547.28
2018-12-10T09:57:13.702Z,99551.48
2018-12-10T09:59:20.517Z,99549.27
2018-12-10T10:01:27.553Z,99549.36
2018-12-10T10:03:34.590Z,99550.47
2018-12-10T10:05:41.474Z,99551.55
2018-12-10T10:07:48.314Z,99556.33
2018-12-10T10:09:55.520Z,99553.79
2018-12-10T10:12:02.307Z,99542.19
2018-12-10T10:14:09.049Z,99545.09
2018-12-10T10:16:15.808Z,99549.73
2018-12-10T10:18:22.706Z,99540.22
2018-12-10T10:20:29.477Z,99543.33
2018-12-10T10:22:36.587Z,99546.96
2018-12-10T10:24:43.281Z,99545.65
2018-12-10T10:26:50.205Z,99555.27
2018-12-10T10:28:56.901Z,99552.06
2018-12-10T10:31:03.883Z,99554.30
2018-12-10T10:33:10.571Z,99547.39
2018-12-10T10:35:17.558Z,99544.95
2018-12-10T10:37:24.363Z,99546.08
2018-12-10T10:39:31.257Z,99539.78
2018-12-10T10:41:38.120Z,99530.31
2018-12-10T10:43:45.033Z,99534.02
2018-12-10T10:45:51.851Z,99535.52
2018-12-10T10:47:58.888Z,99533.15
2018-12-10T10:50:05.638Z,99528.87
2018-12-10T10:52:12.655Z,99537.91
2018-12-10T10:54:19.707Z,99531.56
2018-12-10T10:56:26.530Z,99533.61
2018-12-10T10:58:33.332Z,99526.87
2018-12-10T11:00:44.939Z,99534.88
2018-12-10T11:02:59.266Z,99524.22
2018-12-10T11:05:06.742Z,99533.44
2018-12-10T11:07:13.502Z,99531.56
2018-12-10T11:09:20.334Z,99522.63
2018-12-10T11:11:27.306Z,99519.34
2018-12-10T11:13:34.127Z,99520.31
2018-12-10T11:15:40.965Z,99520.91
2018-12-10T11:17:47.960Z,99523.13
2018-12-10T11:19:55.176Z,99517.11
2018-12-10T11:22:02.016Z,99525.60
2018-12-10T11:24:08.775Z,99524.66
2018-12-10T11:26:15.490Z,99529.47
2018-12-10T11:28:22.503Z,99526.78
2018-12-10T11:30:29.130Z,99525.11
2018-12-10T11:32:35.901Z,99520.75
2018-12-10T11:34:42.750Z,99516.02
2018-12-10T11:36:49.688Z,99516.52
2018-12-10T11:38:58.093Z,99522.56
2018-12-10T11:41:05.014Z,99517.39
2018-12-10T11:43:12.025Z,99519.13
2018-12-10T11:45:19.599Z,99523.19
2018-12-10T11:47:26.906Z,99517.09
2018-12-10T11:49:33.920Z,99524.06
2018-12-10T11:51:41.250Z,99531.06
2018-12-10T11:53:49.386Z,99527.68
2018-12-10T11:55:55.927Z,99528.72
2018-12-10T11:58:02.590Z,99527.67
2018-12-10T12:00:11.256Z,99530.75
2018-12-10T12:02:18.085Z,99530.28
2018-12-10T12:04:24.916Z,99526.98
2018-12-10T12:06:31.693Z,99531.09
2018-12-10T12:08:38.462Z,99526.61
2018-12-10T12:10:45.074Z,99538.35
2018-12-10T12:12:52.013Z,99536.59
2018-12-10T12:14:58.950Z,99543.63
2018-12-10T12:17:05.864Z,99537.18
2018-12-10T12:19:12.656Z,99539.86
2018-12-10T12:21:19.349Z,99547.44
2018-12-10T12:23:26.346Z,99549.98
2018-12-10T12:25:33.322Z,99541.63
2018-12-10T12:27:40.381Z,99538.12
2018-12-10T12:29:47.171Z,99538.47
2018-12-10T12:31:54.174Z,99537.03
2018-12-10T12:34:00.930Z,99534.05
2018-12-10T12:36:07.569Z,99535.63
2018-12-10T12:38:14.238Z,99533.11
2018-12-10T12:40:21.192Z,99531.78
2018-12-10T12:42:28.099Z,99523.75
2018-12-10T12:44:35.914Z,99526.53
2018-12-10T12:46:42.878Z,99524.77
2018-12-10T12:48:49.663Z,99529.33
2018-12-10T12:50:56.468Z,99532.58
2018-12-10T12:53:03.432Z,99541.13
2018-12-10T12:55:10.437Z,99543.75
2018-12-10T12:57:17.103Z,99537.77
2018-12-10T12:59:24.102Z,99536.63
2018-12-10T13:01:30.807Z,99535.89
2018-12-10T13:03:37.584Z,99526.37
2018-12-10T13:05:45.177Z,99527.44
2018-12-10T13:07:51.934Z,99528.36
2018-12-10T13:09:58.760Z,99531.03
2018-12-10T13:12:05.617Z,99535.31
2018-12-10T13:14:12.560Z,99541.73
2018-12-10T13:16:19.910Z,99545.05
2018-12-10T13:18:26.966Z,99542.23
2018-12-10T13:20:33.994Z,99547.61
2018-12-10T13:22:47.242Z,99549.81
2018-12-10T13:24:50.535Z,99546.98
2018-12-10T13:26:58.127Z,99546.55
2018-12-10T13:29:04.977Z,99551.67
2018-12-10T13:31:11.715Z,99555.53
2018-12-10T13:33:18.694Z,99545.34
2018-12-10T13:35:25.364Z,99550.78
2018-12-10T13:37:32.257Z,99556.05
2018-12-10T13:39:39.038Z,99551.38
2018-12-10T13:41:45.966Z,99547.66
2018-12-10T13:43:53.437Z,99552.47
2018-12-10T13:46:00.178Z,99558.13
2018-12-10T13:48:06.962Z,99566.23
2018-12-10T13:50:13.974Z,99556.67
2018-12-10T13:52:20.706Z,99559.56
2018-12-10T13:54:28.323Z,99559.13
2018-12-10T13:56:35.249Z,99559.42
2018-12-10T13:58:41.835Z,99566.06
2018-12-10T14:00:51.031Z,99563.81
2018-12-10T14:02:59.528Z,99561.63
2018-12-10T14:05:10.444Z,99564.13
2018-12-10T14:07:18.132Z,99570.53
2018-12-10T14:09:24.898Z,99562.16
2018-12-10T14:11:31.607Z,99560.30
2018-12-10T14:13:37.862Z,99555.71
2018-12-10T14:15:44.709Z,99557.59
2018-12-10T14:17:51.474Z,99553.02
2018-12-10T14:19:58.043Z,99560.84
2018-12-10T14:22:05.122Z,99562.18
2018-12-10T14:24:11.977Z,99560.63
2018-12-10T14:26:18.854Z,99564.27
2018-12-10T14:28:25.707Z,99569.59
2018-12-10T14:30:32.524Z,99566.55
2018-12-10T14:32:39.562Z,99565.73
2018-12-10T14:34:46.566Z,99570.23
2018-12-10T14:36:53.529Z,99565.82
2018-12-10T14:39:00.426Z,99567.57
2018-12-10T14:41:07.046Z,99561.83
2018-12-10T14:43:14.536Z,99556.18
2018-12-10T14:45:22.163Z,99564.73
2018-12-10T14:47:29.685Z,99572.08
2018-12-10T14:49:36.541Z,99574.39
2018-12-10T14:51:43.358Z,99570.20
2018-12-10T14:53:50.141Z,99576.89
2018-12-10T14:55:57.052Z,99571.91
2018-12-10T14:58:04.208Z,99571.78
2018-12-10T15:00:13.422Z,99578.25
2018-12-10T15:02:20.514Z,99578.44
2018-12-10T15:04:27.443Z,99580.56
2018-12-10T15:06:34.258Z,99584.20
2018-12-10T15:08:42.037Z,99580.53
2018-12-10T15:10:49.017Z,99584.77
2018-12-10T15:12:55.810Z,99576.18
2018-12-10T15:15:02.697Z,99572.33
2018-12-10T15:17:09.461Z,99584.03
2018-12-10T15:19:16.642Z,99583.55
2018-12-10T15:21:23.678Z,99584.81
2018-12-10T15:23:30.394Z,99578.38
2018-12-10T15:25:37.095Z,99576.93
2018-12-10T15:27:43.905Z,99580.03
2018-12-10T15:29:50.665Z,99583.88
2018-12-10T15:31:57.505Z,99585.25
2018-12-10T15:34:04.672Z,99582.84
2018-12-10T15:36:12.049Z,99584.72
2018-12-10T15:38:18.985Z,99590.53
2018-12-10T15:40:25.825Z,99587.73
2018-12-10T15:42:33.802Z,99586.79
2018-12-10T15:44:40.726Z,99583.03
2018-12-10T15:46:47.897Z,99592.42
2018-12-10T15:48:54.918Z,99584.70
2018-12-10T15:51:01.685Z,99585.12
2018-12-10T15:53:08.390Z,99584.82
2018-12-10T15:55:15.045Z,99586.05
2018-12-10T15:57:21.851Z,99584.12
2018-12-10T15:59:28.633Z,99578.15
2018-12-10T16:01:35.289Z,99580.77
2018-12-10T16:03:42.422Z,99581.29
2018-12-10T16:05:49.213Z,99581.30
2018-12-10T16:07:56.055Z,99569.45
2018-12-10T16:10:02.893Z,99568.49
2018-12-10T16:12:09.670Z,99560.80
2018-12-10T16:14:16.787Z,99563.77
2018-12-10T16:16:23.585Z,99565.70
2018-12-10T16:18:30.325Z,99562.92
2018-12-10T16:20:36.906Z,99563.02
2018-12-10T16:22:43.515Z,99558.33
2018-12-10T16:24:50.284Z,99556.97
2018-12-10T16:26:57.087Z,99556.45
2018-12-10T16:29:03.778Z,99553.42
2018-12-10T16:31:10.849Z,99547.81
2018-12-10T16:33:18.477Z,99544.34
2018-12-10T16:35:25.256Z,99488.65
2018-12-10T16:37:32.554Z,99530.53
2018-12-10T16:39:43.753Z,99529.41
2018-12-10T16:41:48.438Z,99525.36
2018-12-10T16:43:55.398Z,99527.09
2018-12-10T16:46:02.046Z,99520.77
2018-12-10T16:48:09.629Z,99519.77
2018-12-10T16:50:16.346Z,99524.73
2018-12-10T16:52:23.109Z,99512.82
2018-12-10T16:54:30.725Z,99506.88
2018-12-10T16:56:37.621Z,99510.72
2018-12-10T16:58:44.680Z,99501.74
2018-12-10T17:00:51.662Z,99499.59
2018-12-10T17:02:58.480Z,99494.39
2018-12-10T17:05:07.777Z,99488.28
2018-12-10T17:07:14.596Z,99486.96
2018-12-10T17:09:21.805Z,99485.92
2018-12-10T17:11:28.980Z,99477.54
2018-12-10T17:13:35.706Z,99477.36
2018-12-10T17:15:42.708Z,99472.25
2018-12-10T17:17:49.668Z,99471.23
2018-12-10T17:19:56.497Z,99463.94
2018-12-10T17:22:03.309Z,99466.03
2018-12-10T17:24:10.676Z,99457.28
2018-12-10T17:26:17.762Z,99457.06
2018-12-10T17:28:24.621Z,99446.87
2018-12-10T17:30:31.843Z,99440.77
2018-12-10T17:32:38.946Z,99438.27
2018-12-10T17:34:45.726Z,99431.30
2018-12-10T17:36:52.534Z,99423.88
2018-12-10T17:38:59.506Z,99423.43
2018-12-10T17:41:06.687Z,99423.56
2018-12-10T17:43:13.630Z,99419.12
2018-12-10T17:45:20.650Z,99414.30
2018-12-10T17:47:27.325Z,99415.20
2018-12-10T17:49:34.172Z,99402.91
2018-12-10T17:51:41.036Z,99398.83
2018-12-10T17:53:48.106Z,99387.77
2018-12-10T17:55:55.104Z,99387.89
2018-12-10T17:58:02.002Z,99385.67
2018-12-10T18:00:11.006Z,99387.49
2018-12-10T18:02:17.828Z,99388.77
2018-12-10T18:04:24.675Z,99381.47
2018-12-10T18:06:31.585Z,99377.54
2018-12-10T18:08:38.424Z,99375.52
2018-12-10T18:10:45.843Z,99367.12
2018-12-10T18:12:52.565Z,99367.44
2018-12-10T18:14:59.161Z,99368.05
2018-12-10T18:17:06.154Z,99362.05
2018-12-10T18:19:12.974Z,99361.69
2018-12-10T18:21:20.154Z,99354.66
2018-12-10T18:23:26.914Z,99352.84
2018-12-10T18:25:33.836Z,99342.00
2018-12-10T18:27:40.513Z,99344.56
2018-12-10T18:29:47.590Z,99343.22
2018-12-10T18:31:54.321Z,99336.00
2018-12-10T18:34:01.294Z,99332.41
2018-12-10T18:36:08.081Z,99334.39
2018-12-10T18:38:14.954Z,99328.27
2018-12-10T18:40:22.048Z,99329.04
2018-12-10T18:42:29.395Z,99326.11
2018-12-10T18:44:36.409Z,99320.69
2018-12-10T18:46:43.234Z,99318.61
2018-12-10T18:48:50.103Z,99322.78
2018-12-10T18:50:57.112Z,99317.61
2018-12-10T18:53:04.505Z,99321.07
2018-12-10T18:55:11.486Z,99322.66
2018-12-10T18:57:18.589Z,99317.33
2018-12-10T18:59:26.100Z,99310.91
2018-12-10T19:01:32.901Z,99310.30
2018-12-10T19:03:39.539Z,99310.25
2018-12-10T19:05:47.821Z,99302.25
2018-12-10T19:07:54.778Z,99309.25
2018-12-10T19:10:01.742Z,99307.70
2018-12-10T19:12:08.391Z,99302.19
2018-12-10T19:14:15.378Z,99304.08
2018-12-10T19:16:22.182Z,99296.48
2018-12-10T19:18:29.036Z,99294.09
2018-12-10T19:20:35.915Z,99297.23
2018-12-10T19:22:42.817Z,99276.36
2018-12-10T19:24:49.837Z,99270.39
2018-12-10T19:26:56.740Z,99269.28
2018-12-10T19:29:03.561Z,99265.64
2018-12-10T19:31:10.241Z,99260.01
2018-12-10T19:33:17.257Z,99259.25
2018-12-10T19:35:24.026Z,99261.44
2018-12-10T19:37:31.074Z,99250.69
2018-12-10T19:39:38.018Z,99248.87
2018-12-10T19:41:45.187Z,99245.95
2018-12-10T19:43:52.681Z,99234.14
2018-12-10T19:45:59.686Z,99245.73
2018-12-10T19:48:06.586Z,99238.08
2018-12-10T19:50:13.473Z,99250.91
2018-12-10T19:52:20.201Z,99243.25
2018-12-10T19:54:26.984Z,99247.28
2018-12-10T19:56:33.908Z,99246.00
2018-12-10T19:58:40.674Z,99233.59
2018-12-10T20:00:47.554Z,99232.42
2018-12-10T20:02:54.683Z,99227.67
2018-12-10T20:05:01.697Z,99227.76
2018-12-10T20:07:09.379Z,99226.69
2018-12-10T20:09:16.549Z,99230.98
2018-12-10T20:11:23.412Z,99219.67
2018-12-10T20:13:30.397Z,99227.52
2018-12-10T20:15:37.323Z,99224.76
2018-12-10T20:17:44.212Z,99226.63
2018-12-10T20:19:51.348Z,99228.06
2018-12-10T20:21:58.314Z,99218.28
2018-12-10T20:24:05.209Z,99222.75
2018-12-10T20:26:12.180Z,99208.41
2018-12-10T20:28:19.035Z,99229.16
2018-12-10T20:30:26.010Z,99225.27
2018-12-10T20:32:33.003Z,99222.56
2018-12-10T20:34:40.360Z,99223.38
2018-12-10T20:36:47.108Z,99220.66
2018-12-10T20:38:53.990Z,99217.85
2018-12-10T20:41:00.649Z,99222.45
2018-12-10T20:43:07.554Z,99216.06
2018-12-10T20:45:14.604Z,99212.87
2018-12-10T20:47:21.441Z,99218.50
2018-12-10T20:49:28.885Z,99218.68
2018-12-10T20:51:35.599Z,99216.92
2018-12-10T20:53:42.508Z,99216.27
2018-12-10T20:55:49.149Z,99226.06
2018-12-10T20:57:57.457Z,99223.95
2018-12-10T21:00:04.587Z,99233.59
2018-12-10T21:02:11.489Z,99228.39
2018-12-10T21:04:18.419Z,99226.28
2018-12-10T21:06:29.862Z,99224.36
2018-12-10T21:08:36.787Z,99219.38
2018-12-10T21:10:44.138Z,99219.69
2018-12-10T21:12:51.407Z,99217.59
2018-12-10T21:15:00.543Z,99214.30
2018-12-10T21:17:07.473Z,99214.91
2018-12-10T21:19:14.345Z,99214.39
2018-12-10T21:21:21.386Z,99212.75
2018-12-10T21:23:28.411Z,99218.62
2018-12-10T21:25:35.208Z,99221.61
2018-12-10T21:27:42.049Z,99217.05
2018-12-10T21:29:48.607Z,99221.66
2018-12-10T21:31:55.893Z,99215.09
2018-12-10T21:34:02.728Z,99225.88
2018-12-10T21:36:10.324Z,99223.61
2018-12-10T21:38:17.429Z,99229.81
2018-12-10T21:40:24.774Z,99226.58
2018-12-10T21:42:31.724Z,99228.52
2018-12-10T21:44:38.791Z,99220.72
2018-12-10T21:46:45.648Z,99223.56
2018-12-10T21:48:52.606Z,99214.94
2018-12-10T21:50:59.638Z,99209.44
2018-12-10T21:53:06.403Z,99206.16
2018-12-10T21:55:16.893Z,99210.73
2018-12-10T21:57:22.373Z,99206.46
2018-12-10T21:59:29.218Z,99210.88
2018-12-10T22:01:35.742Z,99212.31
2018-12-10T22:03:42.590Z,99214.61
2018-12-10T22:05:49.599Z,99210.88
2018-12-10T22:07:56.466Z,99214.66
2018-12-10T22:10:03.319Z,99207.72
2018-12-10T22:12:10.051Z,99204.16
2018-12-10T22:14:16.773Z,99199.59
2018-12-10T22:16:23.545Z,99201.75
2018-12-10T22:18:30.821Z,99190.83
2018-12-10T22:20:37.873Z,99191.31
2018-12-10T22:22:44.836Z,99202.88
2018-12-10T22:24:51.380Z,99195.44
2018-12-10T22:26:58.326Z,99178.86
2018-12-10T22:29:05.663Z,99191.66
2018-12-10T22:31:12.405Z,99176.94
2018-12-10T22:33:18.987Z,99173.39
2018-12-10T22:35:25.749Z,99171.02
2018-12-10T22:37:32.677Z,99168.26
2018-12-10T22:39:39.766Z,99169.64
2018-12-10T22:41:46.416Z,99165.08
2018-12-10T22:43:53.175Z,99166.00
2018-12-10T22:46:00.995Z,99163.46
2018-12-10T22:48:07.873Z,99168.78
2018-12-10T22:50:14.645Z,99167.66
2018-12-10T22:52:21.527Z,99171.20
2018-12-10T22:54:28.447Z,99169.63
2018-12-10T22:56:35.230Z,99163.84
2018-12-10T22:58:42.274Z,99170.55
2018-12-10T23:00:54.211Z,99165.02
2018-12-10T23:03:01.210Z,99164.23
2018-12-10T23:05:08.141Z,99167.09
2018-12-10T23:07:14.789Z,99169.28
2018-12-10T23:09:21.881Z,99169.89
2018-12-10T23:11:28.740Z,99173.28
2018-12-10T23:13:35.664Z,99170.27
2018-12-10T23:15:42.617Z,99175.91
2018-12-10T23:17:49.314Z,99169.61
2018-12-10T23:19:56.382Z,99166.45
2018-12-10T23:22:03.183Z,99175.04
2018-12-10T23:24:10.023Z,99171.80
2018-12-10T23:26:16.906Z,99174.40
2018-12-10T23:28:23.600Z,99175.16
2018-12-10T23:30:30.647Z,99172.58
2018-12-10T23:32:37.386Z,99178.95
2018-12-10T23:34:44.430Z,99179.14
2018-12-10T23:36:51.114Z,99170.44
2018-12-10T23:38:58.173Z,99172.97
2018-12-10T23:41:05.530Z,99168.30
2018-12-10T23:43:17.564Z,99162.98
2018-12-10T23:45:24.928Z,99161.46
2018-12-10T23:47:31.853Z,99161.13
2018-12-10T23:49:39.285Z,99158.34
2018-12-10T23:51:46.352Z,99109.28
2018-12-10T23:53:53.109Z,99155.83
2018-12-10T23:56:01.275Z,99157.52
2018-12-10T23:58:09.090Z,99156.39
